Jacques Legrand

Scout - Nimes
4 Dec 2028
Monday
Process

Personality

Adaptability (10) Ambition (19) Controversy (1) Loyalty (20) Pressure (18) Professionalism (19) Sportsmanship (8) Temperament (10)

Profile

Coaching Style Democratic
License Continental A
Determination 4
Man Management 7
Motivating 9
Discipline 9
Job Satisfaction
100%
Fatigue
0%
Role Scout
Wage 26.3K p/w
Contract 14.03.2029

Performance

Behaviour Good
Training Effectiveness
30%
Player Development
40%
Injury Prevention
45%
Tactical Implementation
30%

Recent Events

Attended a recruitment meeting 7d ago
Attended a recruitment meeting 14d ago
Attended a recruitment meeting 21d ago
Attended a recruitment meeting 28d ago
Attended a recruitment meeting 35d ago
Attended a recruitment meeting 42d ago
Attended a recruitment meeting 49d ago
Attended a recruitment meeting 56d ago

Currently Monitoring

56
Player Club Status Ability Confidence Watched Last Observed Latest Vote
Samir Belloumou Valenciennes Active 107 / 104 58% 1 31.07.2028 -
Loïc Badiashile US Creteil Active 110 / 102 51% 1 05.07.2027 -
Bosun Lawal Stoke City Active 128 / 131 40% 1 29.05.2027 -
Andre Brooks Sheffield United Active 132 / 139 40% 3 24.05.2027 -
Tyrese Campbell Sheffield United Active 129 / 126 40% 1 24.05.2027 -
Jacob Greaves Ipswich Town Active 148 / 144 40% 2 22.05.2027 -
Luke McNally Bristol City Active 132 / 125 40% 1 22.05.2027 -
Lewis Ferguson Bologna Active 134 / 146 40% 1 21.05.2027 -
Pelle Mattsson Norwich City Active 135 / 125 40% 1 21.05.2027 -
Welington Southampton Active 124 / 128 40% 1 20.05.2027 -
Malick Mbaye Zulte Waregem Active 125 / 124 40% 1 20.05.2027 -
Oliver Skipp Leicester City Active 134 / 137 40% 1 18.05.2027 -
Malik Mothersille Stockport County Active 117 / 125 40% 2 17.05.2027 -
Japhet Tanganga Sheffield United Active 144 / 139 40% 3 14.05.2027 -
Jack Currie Oxford United Active 120 / 116 40% 1 14.05.2027 -
Azor Matusiwa Ipswich Town Active 135 / 128 40% 1 12.05.2027 -
Toti Wolverhampton Active 137 / 133 40% 2 09.05.2027 -
Mohamed-Ali Cho Hull City Active 145 / 140 40% 2 08.05.2027 -
Dimitri Lavalée Standard Liege Active 127 / 126 40% 1 07.05.2027 -
Finn Azaz Southampton Active 132 / 138 40% 1 03.05.2027 -
Habib Diarra Sunderland Active 147 / 147 40% 2 02.05.2027 -
Nayel Mehssatou KV Kortrijk Active 122 / 126 40% 1 01.05.2027 -
Amine Sbaï Angers SCO Active 134 / 118 40% 1 30.04.2027 -
Ilias Sebaoui Sint-Truiden Active 117 / 120 40% 1 27.04.2027 -
Ilyas Ansah Hull City Active 128 / 130 40% 2 24.04.2027 -
Thomas Claes Zulte Waregem Active 125 / 128 40% 1 24.04.2027 -
Marley Aké Zulte Waregem Active 121 / 121 40% 1 17.04.2027 -
Sylvester Jasper Standard Liege Active 129 / 129 40% 1 17.04.2027 -
Matisse Samoise KAA Gent Active 115 / 130 40% 1 17.04.2027 -
Shea Charles Southampton Active 137 / 140 40% 1 17.04.2027 -
Lewis Bate Stockport County Active 133 / 116 40% 1 16.04.2027 -
Ronnie Edwards Queens Park Rangers Active 137 / 141 40% 1 16.04.2027 -
Max Bird Birmingham Active 132 / 128 40% 1 15.04.2027 -
Ayman Kari Westerlo Active 122 / 126 40% 1 13.04.2027 -
Gilles Dewaele KV Kortrijk Active 111 / 122 40% 2 11.04.2027 -
Hidemasa Morita Hull City Active 134 / 145 40% 1 07.04.2027 -
Matthew Targett Hull City Active 143 / 120 40% 1 05.04.2027 -
Timothy Fellaini KV Oostende Active 145 / 129 40% 1 05.04.2027 -
Harry Clarke Preston Active 126 / 137 40% 2 04.04.2027 -
Cian Ashford Cardiff City Active 117 / 125 40% 2 04.04.2027 -
Nacer Chadli Mouscron Active 116 / 126 40% 1 28.03.2027 -
Jeppe Erenbjerg Racing Genk Active 110 / 110 40% 2 25.03.2027 -
Jacques Ekomié Wrexham Active 124 / 130 40% 1 25.03.2027 -
Sorriso Famalicao Active 127 / 125 40% 1 24.03.2027 -
Kevin Amaro Racing Genk Active 121 / 129 40% 1 22.03.2027 -
Lloyd Jones Charlton Athletic Active 119 / 127 40% 1 20.03.2027 -
Dara O'Shea Ipswich Town Active 128 / 139 40% 1 17.03.2027 -
Max Johnston Derby County Active 136 / 129 40% 2 14.03.2027 -
Pathé Mboup Stade Brestois Active 107 / 127 40% 1 14.03.2027 -
Lilian Raolisoa Angers SCO Active 118 / 135 40% 1 13.03.2027 -
Modeste Duku Forli Active 82 / 99 40% 1 11.03.2027 -
Bradley Locko Stade Brestois Active 127 / 130 40% 1 08.03.2027 -
Milan van Ewijk Coventry City Active 132 / 135 40% 1 08.03.2027 -
Luca Koleosho Paris FC Active 120 / 132 40% 1 08.03.2027 -
Léandre Kuavita Waasland-Beveren Active 124 / 117 40% 1 02.03.2027 -
Daniel Kyerewaa Reading Active 121 / 109 40% 1 01.03.2027 -